Accueil
METAR-TAF:

METAR-TAF

Aéroports :

Aéroport de Sion

Sion, Suisse

latitude: 46-13N, longitude: 007-20E, altitude: 482 m

Observation

Le bulletin a été fait il y a 29 minutes, à 12:20 UTC
Vent 2 kt de direction variable
Température 2°C
Humidité 40%
Pression 1015 hPa
Visibilité 10 km ou plus
Quelques nuages à une hauteur de 7000 ft

METAR: LSGS 141220Z VRB02KT 9999 FEW070 02/M10 Q1015

Heure: 13:49 (12:49 UTC)

Prévision

Le bulletin a été fait il y a 1 heure et 24 minutes, à 11:25 UTC
Prévision valable du 14 à 12 UTC au 14 à 21 UTC
Vent 3 kt de direction variable
Visibilité 10 km ou plus
Quelques nuages à une hauteur de 10000 ft

TAF: LSGS 141125Z 1412/1421 VRB03KT 9999 FEW100

Observations et prévisions météorologiques de plus de 4000 aéroports (messages METAR et TAF).

Les stations disponibles sont représentées par des disques jaunes et rouges sur la carte.

Passer la souris dessus pour voir le nom de la station.

Cliquer dessus pour voir les observations et prévisions météorologiques.

Pour changer de carte: cliquez sur les boutons verts avec une croix noire pour zoomer, sur le bouton vert avec un tiret pour effectuer un zoom arrière, ou sur les flèches vertes pour les cartes adjacentes.


METAR-TAF: